Time;durP1;ratioP1;P1;durP2;ratioP2;P2;SDS_P1;SDS_P2;PMS_P1;PMS_P2;Temp;Humidity;BMP_temperature;BMP_pressure;BME280_temperature;BME280_humidity;BME280_pressure;Samples;Min_cycle;Max_cycle;Signal;HPM_P1;HPM_P2
2021/01/26 00:00:13;;;;;;;7.40;6.70;;;-1.20;1.40;;;-0.87;100.00;94841.27;657117;216;23556;-71
2021/01/26 00:02:42;;;;;;;6.93;6.23;;;-1.20;1.40;;;-0.90;100.00;94849.53;631077;224;26653;-72
2021/01/26 00:05:11;;;;;;;7.30;5.63;;;-1.20;1.40;;;-0.93;100.00;94849.45;627330;225;24549;-72
2021/01/26 00:07:40;;;;;;;7.87;7.20;;;-1.20;1.40;;;-0.91;100.00;94849.14;654466;216;24564;-72
2021/01/26 00:10:11;;;;;;;8.17;7.37;;;-1.20;1.40;;;-0.91;100.00;94846.00;629502;225;24611;-72
2021/01/26 00:12:40;;;;;;;8.85;7.95;;;-1.20;1.40;;;-0.89;100.00;94851.61;651531;215;32240;-72
2021/01/26 00:15:10;;;;;;;8.20;7.40;;;-1.10;1.40;;;-0.87;100.00;94851.42;650497;215;31706;-72
2021/01/26 00:17:39;;;;;;;8.30;7.50;;;-1.20;1.40;;;-0.86;100.00;94857.51;656379;216;23448;-72
2021/01/26 00:20:09;;;;;;;6.90;6.20;;;-1.20;1.40;;;-0.89;100.00;94858.75;630050;225;24551;-71
2021/01/26 00:22:39;;;;;;;8.53;7.60;;;-1.20;1.40;;;-0.91;100.00;94861.17;657139;214;24542;-72
2021/01/26 00:25:09;;;;;;;7.30;6.63;;;-1.20;1.40;;;-0.89;100.00;94860.28;635179;224;24596;-72
2021/01/26 00:27:38;;;;;;;8.13;7.43;;;-1.10;1.40;;;-0.88;100.00;94859.51;656984;215;24472;-72
2021/01/26 00:30:09;;;;;;;6.73;6.03;;;-1.10;1.40;;;-0.88;100.00;94860.45;642296;220;24598;-72
2021/01/26 00:32:38;;;;;;;8.85;8.02;;;-1.20;1.40;;;-0.88;100.00;94861.25;637945;220;32059;-72
2021/01/26 00:35:09;;;;;;;6.80;6.10;;;-1.10;1.40;;;-0.84;100.00;94865.62;656060;215;23469;-72
2021/01/26 00:37:38;;;;;;;7.23;6.50;;;-1.10;1.40;;;-0.88;100.00;94859.81;633056;224;24585;-72
2021/01/26 00:40:08;;;;;;;6.60;6.10;;;-1.10;1.40;;;-0.84;100.00;94863.80;656242;215;24510;-72
2021/01/26 00:42:37;;;;;;;8.83;7.20;;;-1.10;1.40;;;-0.86;100.00;94868.26;639495;220;25058;-72
2021/01/26 00:45:07;;;;;;;6.30;5.70;;;-1.10;1.40;;;-0.84;100.00;94878.33;641924;220;24578;-71
2021/01/26 00:47:36;;;;;;;8.75;7.62;;;-1.20;1.40;;;-0.87;100.00;94882.18;654700;215;31574;-71
2021/01/26 00:50:06;;;;;;;9.43;8.53;;;-1.20;1.40;;;-0.88;100.00;94880.04;630137;224;26679;-72
2021/01/26 00:52:35;;;;;;;8.47;7.67;;;-1.20;1.40;;;-0.86;100.00;94885.13;634921;225;24995;-72
2021/01/26 00:55:05;;;;;;;7.80;7.00;;;-1.20;1.40;;;-0.89;100.00;94888.54;658206;215;24485;-72
2021/01/26 00:57:34;;;;;;;7.43;6.70;;;-1.20;1.40;;;-0.90;100.00;94888.63;643296;220;25599;-71
2021/01/26 01:00:04;;;;;;;8.20;7.40;;;-1.20;1.40;;;-0.95;100.00;94890.72;642394;221;24534;-72
2021/01/26 01:02:34;;;;;;;9.77;8.87;;;-1.20;1.40;;;-0.90;100.00;94897.62;628883;225;25624;-72
2021/01/26 01:05:02;;;;;;;11.05;9.85;;;-1.20;1.40;;;-0.94;100.00;94901.22;652628;216;31705;-71
2021/01/26 01:07:31;;;;;;;10.50;9.23;;;-1.20;1.40;;;-0.94;100.00;94901.48;656898;216;25603;-71
2021/01/26 01:10:00;;;;;;;11.23;8.30;;;-1.20;1.40;;;-0.89;100.00;94901.57;655391;216;27639;-72
2021/01/26 01:12:29;;;;;;;7.63;6.83;;;-1.20;1.40;;;-0.87;100.00;94910.48;630750;225;24570;-72
2021/01/26 01:14:59;;;;;;;11.23;9.13;;;-1.10;1.40;;;-0.92;100.00;94913.52;640902;220;24541;-72
2021/01/26 01:17:28;;;;;;;10.45;9.13;;;-1.20;1.40;;;-0.89;100.00;94913.12;650930;215;31719;-71
2021/01/26 01:19:57;;;;;;;9.70;8.70;;;-1.20;1.40;;;-0.85;100.00;94911.63;654193;216;23452;-72
2021/01/26 01:25:02;;;;;;;10.02;9.00;;;-1.10;1.40;;;-0.73;100.00;94924.53;645557;216;31984;-71
2021/01/26 01:27:31;;;;;;;12.47;8.37;;;-1.10;1.40;;;-0.77;100.00;94918.06;638945;221;25569;-71
2021/01/26 01:30:00;;;;;;;7.67;6.97;;;-1.10;1.40;;;-0.78;100.00;94925.92;641466;221;24539;-70
2021/01/26 01:32:29;;;;;;;8.85;7.95;;;-1.10;1.40;;;-0.81;100.00;94927.75;636501;220;32215;-71
2021/01/26 01:34:59;;;;;;;9.13;8.30;;;-1.10;1.40;;;-0.83;100.00;94930.12;639847;221;23723;-70
2021/01/26 01:37:28;;;;;;;9.70;7.40;;;-1.10;1.40;;;-0.73;100.00;94937.84;640878;220;24779;-71
2021/01/26 01:42:31;;;;;;;10.60;9.60;;;-1.10;1.40;;;-0.80;100.00;94932.77;646478;216;31559;-71
2021/01/26 01:45:00;;;;;;;9.50;8.60;;;-1.10;1.40;;;-0.83;100.00;94937.36;642799;221;23525;-71
2021/01/26 01:47:31;;;;;;;8.97;8.10;;;-1.10;1.40;;;-0.83;100.00;94937.36;640250;221;24583;-71
2021/01/26 01:50:00;;;;;;;10.90;9.30;;;-1.10;1.40;;;-0.80;100.00;94943.04;658266;216;24483;-72
2021/01/26 01:52:29;;;;;;;9.47;8.40;;;-1.10;1.40;;;-0.79;100.00;94947.63;670319;211;24442;-72
2021/01/26 01:55:04;;;;;;;8.33;6.83;;;-1.10;1.40;;;-0.80;100.00;94949.59;670267;211;24441;-71
2021/01/26 01:57:34;;;;;;;9.63;8.70;;;-1.10;1.40;;;-0.85;100.00;94949.78;664281;211;31429;-71
2021/01/26 02:00:04;;;;;;;8.77;7.90;;;-1.10;1.40;;;-0.86;100.00;94952.05;666286;211;23661;-70
2021/01/26 02:02:33;;;;;;;10.15;9.15;;;-1.10;1.40;;;-0.80;100.00;94957.88;641352;220;33784;-70
2021/01/26 02:05:02;;;;;;;9.73;8.53;;;-1.10;1.40;;;-0.82;100.00;94954.08;668299;211;23457;-70
2021/01/26 02:07:31;;;;;;;10.60;9.50;;;-1.10;1.40;;;-0.88;100.00;94954.95;663370;211;32519;-70
2021/01/26 02:10:00;;;;;;;10.13;9.03;;;-1.10;1.40;;;-0.86;100.00;94957.91;650546;216;31704;-70
2021/01/26 02:12:30;;;;;;;10.13;9.13;;;-1.10;1.40;;;-0.86;100.00;94962.22;668153;211;24458;-71
2021/01/26 02:14:59;;;;;;;11.37;8.77;;;-1.10;1.40;;;-0.84;100.00;94966.88;670937;211;24442;-70
2021/01/26 02:17:32;;;;;;;10.67;8.10;;;-1.10;1.40;;;-0.78;100.00;94965.79;670205;211;24460;-70
2021/01/26 02:20:39;;;;;;;8.50;7.70;;;-1.10;1.40;;;-0.77;100.00;94975.96;668889;211;24983;-70
2021/01/26 02:26:25;;;;;;;11.45;10.25;;;-1.10;1.40;;;-0.81;100.00;94976.28;646628;216;31662;-71
2021/01/26 02:29:12;;;;;;;8.80;7.50;;;-1.10;1.40;;;-0.81;100.00;94979.64;640928;220;23504;-71
2021/01/26 02:32:10;;;;;;;9.80;7.70;;;-1.10;1.40;;;-0.81;100.00;94993.47;640172;221;24576;-71
2021/01/26 02:35:10;;;;;;;11.05;9.30;;;-1.10;1.40;;;-0.84;100.00;94994.81;647843;216;31751;-70
2021/01/26 02:37:56;;;;;;;10.00;9.00;;;-1.10;1.40;;;-0.79;100.00;95000.42;635873;221;31801;-70
2021/01/26 02:40:47;;;;;;;9.63;8.63;;;-1.10;1.40;;;-0.81;100.00;95004.75;645865;216;31704;-71
2021/01/26 02:43:19;;;;;;;11.10;9.30;;;-1.10;1.40;;;-0.86;100.00;95002.66;639900;221;25637;-71
2021/01/26 02:45:50;;;;;;;11.23;10.13;;;-1.10;1.40;;;-0.78;100.00;95004.53;634073;221;31876;-70
2021/01/26 02:48:38;;;;;;;11.40;10.20;;;-1.10;1.40;;;-0.83;100.00;95004.62;639106;221;23472;-71
2021/01/26 02:51:09;;;;;;;10.53;8.07;;;-1.20;1.40;;;-0.76;100.00;95012.75;637469;221;24585;-71
2021/01/26 02:54:04;;;;;;;8.00;7.20;;;-1.20;1.40;;;-0.83;100.00;95013.07;640492;221;24569;-71
2021/01/26 02:56:57;;;;;;;10.23;9.05;;;-1.20;1.40;;;-0.76;100.00;95009.55;646349;212;31643;-71
2021/01/26 02:59:34;;;;;;;12.03;10.07;;;-1.10;1.40;;;-0.86;100.00;95011.59;643274;220;23504;-71
2021/01/26 03:02:09;;;;;;;10.73;9.30;;;-1.20;1.40;;;-0.86;100.00;95016.22;640216;221;24537;-72
2021/01/26 03:04:39;;;;;;;10.00;8.70;;;-1.20;1.40;;;-0.79;100.00;95020.38;641176;221;24535;-72
2021/01/26 03:07:08;;;;;;;11.20;9.60;;;-1.20;1.40;;;-0.82;100.00;95022.89;633027;220;31738;-71
2021/01/26 03:09:37;;;;;;;9.70;8.23;;;-1.20;1.40;;;-0.84;100.00;95024.77;641650;221;23897;-72
2021/01/26 03:14:55;;;;;;;10.60;9.60;;;-1.20;1.40;;;-0.84;100.00;95031.37;645319;216;31578;-72
2021/01/26 03:17:33;;;;;;;10.97;9.87;;;-1.20;1.40;;;-0.87;100.00;95038.19;641249;220;24537;-72
2021/01/26 03:20:07;;;;;;;9.90;8.87;;;-1.20;1.40;;;-0.83;100.00;95040.86;641095;220;24592;-71
2021/01/26 03:22:36;;;;;;;8.80;7.87;;;-1.20;1.40;;;-0.83;100.00;95043.52;644323;219;24573;-72
2021/01/26 03:25:07;;;;;;;10.75;9.65;;;-1.20;1.40;;;-0.81;100.00;95047.06;660681;211;31430;-72
2021/01/26 03:27:36;;;;;;;9.17;8.20;;;-1.20;1.40;;;-0.82;100.00;95053.86;655198;216;23437;-72
2021/01/26 03:30:07;;;;;;;12.30;11.00;;;-1.20;1.40;;;-0.71;100.00;95064.63;648426;216;31905;-71
2021/01/26 03:32:36;;;;;;;12.57;11.27;;;-1.20;1.40;;;-0.75;100.00;95066.03;662226;211;31479;-69
2021/01/26 03:35:06;;;;;;;13.37;10.30;;;-1.20;1.40;;;-0.75;100.00;95062.84;668274;211;23447;-70
2021/01/26 03:37:35;;;;;;;10.80;9.47;;;-1.20;1.40;;;-0.68;100.00;95062.23;671152;211;24489;-71
2021/01/26 03:40:05;;;;;;;11.43;10.23;;;-1.20;1.40;;;-0.76;100.00;95065.87;670391;211;24487;-70
2021/01/26 03:42:34;;;;;;;12.50;11.20;;;-1.20;1.40;;;-0.72;100.00;95066.64;667068;211;31462;-70
2021/01/26 03:45:03;;;;;;;11.80;10.40;;;-1.30;1.40;;;-0.70;100.00;95071.88;666987;211;23429;-70
2021/01/26 03:47:44;;;;;;;12.07;9.27;;;-1.20;1.40;;;-0.78;100.00;95076.69;669785;211;32143;-70
2021/01/26 03:50:20;;;;;;;14.13;10.60;;;-1.30;1.40;;;-0.80;100.00;95078.98;644846;220;24552;-71
2021/01/26 03:52:56;;;;;;;9.60;8.70;;;-1.30;1.40;;;-0.91;100.00;95083.61;667398;211;24444;-71
2021/01/26 03:55:30;;;;;;;13.70;9.40;;;-1.50;1.40;;;-1.01;100.00;95090.34;667531;211;24856;-71
2021/01/26 03:58:10;;;;;;;11.90;8.93;;;-1.60;1.40;;;-1.09;100.00;95093.72;668151;211;24438;-71
2021/01/26 04:00:43;;;;;;;10.35;8.98;;;-1.50;1.40;;;-1.05;100.00;95099.84;662170;211;31535;-71
2021/01/26 04:03:16;;;;;;;10.57;9.50;;;-1.50;1.40;;;-1.16;100.00;95105.17;665872;211;23412;-71
2021/01/26 04:05:53;;;;;;;10.60;9.50;;;-1.50;1.40;;;-1.31;100.00;95103.33;642845;220;24581;-71
2021/01/26 04:08:45;;;;;;;9.57;8.60;;;-1.70;1.40;;;-1.42;100.00;95108.83;672121;211;24426;-70
2021/01/26 04:11:25;;;;;;;11.40;9.98;;;-1.90;1.40;;;-1.49;100.00;95104.94;650048;216;31601;-70
2021/01/26 04:14:04;;;;;;;11.17;9.37;;;-1.90;1.40;;;-1.61;100.00;95110.53;641902;220;23480;-70
2021/01/26 04:16:33;;;;;;;8.70;7.37;;;-1.90;1.40;;;-1.68;100.00;95107.16;637489;221;26662;-69
2021/01/26 04:19:02;;;;;;;10.53;8.73;;;-2.00;1.40;;;-1.69;100.00;95101.03;642852;220;25561;-70
2021/01/26 04:21:33;;;;;;;12.10;10.80;;;-1.90;1.40;;;-1.60;100.00;95103.15;635751;221;31773;-70
2021/01/26 04:24:01;;;;;;;12.13;8.47;;;-1.90;1.40;;;-1.71;100.00;95102.13;668635;211;23419;-70
2021/01/26 04:26:30;;;;;;;8.80;7.57;;;-2.00;1.40;;;-1.79;100.00;95111.16;667630;211;25492;-70
2021/01/26 04:28:59;;;;;;;10.70;9.60;;;-2.10;1.40;;;-1.73;100.00;95106.66;663336;211;31388;-70
2021/01/26 04:31:28;;;;;;;11.60;10.10;;;-2.10;1.40;;;-1.73;100.00;95106.18;662116;211;31473;-70
2021/01/26 04:33:57;;;;;;;9.77;8.77;;;-2.00;1.40;;;-1.74;100.00;95103.88;668036;211;23498;-70
2021/01/26 04:36:26;;;;;;;8.80;7.40;;;-2.00;1.40;;;-1.82;100.00;95109.45;668566;211;25481;-70
2021/01/26 04:38:55;;;;;;;12.45;10.52;;;-2.00;1.40;;;-1.71;100.00;95105.52;664040;211;31384;-70
2021/01/26 04:41:42;;;;;;;10.33;8.43;;;-2.00;1.40;;;-1.79;100.00;95117.38;670231;211;23408;-70
2021/01/26 04:47:05;;;;;;;11.00;9.68;;;-2.00;1.40;;;-1.87;100.00;95114.38;645041;216;31895;-72
2021/01/26 04:49:46;;;;;;;11.43;8.67;;;-2.10;1.40;;;-1.78;100.00;95117.88;643069;220;23642;-72
2021/01/26 04:52:52;;;;;;;8.73;7.83;;;-2.00;1.40;;;-1.70;100.00;95117.02;640259;220;24528;-71
2021/01/26 04:56:15;;;;;;;10.93;9.20;;;-1.90;1.40;;;-1.74;100.00;95117.89;646618;216;43942;-71
2021/01/26 04:59:24;;;;;;;10.43;8.80;;;-1.90;1.40;;;-1.75;100.00;95119.36;646422;216;42842;-71
2021/01/26 05:02:45;;;;;;;12.77;8.43;;;-1.90;1.40;;;-1.74;100.00;95127.56;643650;220;23491;-71
2021/01/26 05:05:29;;;;;;;10.93;8.88;;;-1.90;1.40;;;-1.68;100.00;95128.33;644484;212;31578;-70
2021/01/26 05:07:58;;;;;;;10.27;9.25;;;-1.80;1.40;;;-1.64;100.00;95134.05;636088;220;32342;-70
2021/01/26 05:10:40;;;;;;;11.10;9.43;;;-1.80;1.40;;;-1.68;100.00;95127.73;640658;220;23525;-70
2021/01/26 05:13:22;;;;;;;10.65;9.20;;;-1.90;1.40;;;-1.73;100.00;95136.09;637229;221;31853;-69
2021/01/26 05:15:58;;;;;;;8.50;7.40;;;-1.90;1.40;;;-1.65;100.00;95137.80;643475;221;23530;-70
2021/01/26 05:18:36;;;;;;;9.90;8.75;;;-1.90;1.40;;;-1.71;100.00;95140.59;635983;221;42347;-71
2021/01/26 05:21:06;;;;;;;9.33;8.40;;;-1.90;1.40;;;-1.63;100.00;95132.59;641231;221;24606;-70
2021/01/26 05:23:38;;;;;;;9.65;8.65;;;-1.80;1.40;;;-1.64;100.00;95132.62;635547;220;31742;-70
2021/01/26 05:26:12;;;;;;;7.93;7.13;;;-1.80;1.40;;;-1.70;100.00;95136.09;652866;216;24498;-70
2021/01/26 05:28:37;;;;;;;10.43;8.95;;;-1.90;1.40;;;-1.58;100.00;95139.86;664757;211;31450;-69
2021/01/26 05:31:12;;;;;;;11.20;9.93;;;-1.80;1.40;;;-1.71;100.00;95139.95;662783;211;31448;-70
2021/01/26 05:38:36;;;;;;;10.15;9.05;;;-1.70;1.40;;;-1.68;100.00;95145.22;644876;216;31749;-72
2021/01/26 05:41:05;;;;;;;8.90;7.17;;;-1.80;1.40;;;-1.67;100.00;95142.34;629795;225;23545;-72
2021/01/26 05:43:34;;;;;;;6.97;6.20;;;-1.80;1.40;;;-1.66;100.00;95145.86;658180;215;24554;-72
2021/01/26 05:46:03;;;;;;;9.38;8.18;;;-1.80;1.40;;;-1.66;100.00;95146.83;649990;215;31567;-72
2021/01/26 05:48:32;;;;;;;9.70;8.20;;;-1.80;1.40;;;-1.63;100.00;95159.05;662455;215;23443;-72
2021/01/26 05:51:21;;;;;;;9.02;8.13;;;-1.80;1.40;;;-1.71;100.00;95168.75;650267;215;31620;-72
2021/01/26 05:53:54;;;;;;;9.70;7.97;;;-1.80;1.40;;;-1.64;100.00;95158.66;648543;215;31691;-71
2021/01/26 05:56:23;;;;;;;9.70;8.70;;;-1.80;1.40;;;-1.63;100.00;95168.45;651504;215;32065;-71
2021/01/26 05:58:52;;;;;;;9.17;8.03;;;-1.80;1.40;;;-1.61;100.00;95168.56;656568;215;23566;-71
2021/01/26 06:01:27;;;;;;;10.50;8.50;;;-1.80;1.40;;;-1.64;100.00;95175.14;638172;220;32303;-72
2021/01/26 06:04:10;;;;;;;9.67;6.30;;;-1.80;1.40;;;-1.64;100.00;95179.19;643894;220;23477;-71
2021/01/26 06:06:51;;;;;;;6.50;5.80;;;-1.80;1.40;;;-1.62;100.00;95172.04;628285;224;24578;-71
2021/01/26 06:09:31;;;;;;;10.67;6.37;;;-1.80;1.40;;;-1.62;100.00;95169.27;639921;222;25635;-71
2021/01/26 06:12:22;;;;;;;6.53;5.80;;;-1.70;1.40;;;-1.65;100.00;95173.09;641848;223;24520;-71
2021/01/26 06:15:06;;;;;;;8.30;7.40;;;-1.80;1.40;;;-1.65;100.00;95164.27;629177;224;31953;-71
2021/01/26 06:17:35;;;;;;;9.23;7.07;;;-1.80;1.40;;;-1.64;100.00;95163.55;629713;224;23521;-72
2021/01/26 06:20:13;;;;;;;9.05;7.65;;;-1.80;1.40;;;-1.66;100.00;95165.20;649393;216;31581;-71
2021/01/26 06:22:43;;;;;;;9.20;7.80;;;-1.80;1.40;;;-1.61;100.00;95167.11;651498;215;31568;-71
2021/01/26 06:25:20;;;;;;;8.70;7.80;;;-1.70;1.40;;;-1.65;100.00;95178.99;647401;215;31591;-71
2021/01/26 06:27:51;;;;;;;8.23;7.43;;;-1.80;1.40;;;-1.64;100.00;95172.53;656141;215;23507;-71
2021/01/26 06:30:38;;;;;;;6.10;5.53;;;-1.80;1.40;;;-1.66;100.00;95174.23;655206;216;27632;-71
2021/01/26 06:33:29;;;;;;;10.10;6.80;;;-1.80;1.40;;;-1.69;100.00;95181.34;657065;215;25565;-71
2021/01/26 06:36:38;;;;;;;8.02;7.00;;;-1.80;1.40;;;-1.62;100.00;95180.27;649472;216;31713;-73
2021/01/26 06:39:28;;;;;;;7.97;7.17;;;-1.80;1.40;;;-1.65;100.00;95173.38;654760;216;24563;-72
2021/01/26 06:42:34;;;;;;;9.18;7.65;;;-1.80;1.40;;;-1.68;100.00;95165.41;647912;216;32134;-72
2021/01/26 06:45:25;;;;;;;7.70;6.90;;;-1.80;1.40;;;-1.64;100.00;95178.48;647979;216;42177;-72
2021/01/26 06:51:05;;;;;;;7.00;6.30;;;-1.70;1.40;;;-1.54;99.13;95173.22;649396;212;42399;-72
2021/01/26 06:53:47;;;;;;;6.20;5.60;;;-1.70;1.40;;;-1.52;98.08;95184.95;643165;220;23533;-72
2021/01/26 06:56:39;;;;;;;7.12;6.22;;;-1.60;1.40;;;-1.49;97.81;95178.67;648757;216;32195;-72
2021/01/26 06:59:25;;;;;;;7.85;6.30;;;-1.60;1.40;;;-1.48;97.75;95186.97;645356;219;31630;-72
2021/01/26 07:02:34;;;;;;;6.28;5.68;;;-1.60;1.40;;;-1.39;96.54;95188.91;648453;216;31536;-71
2021/01/26 07:05:28;;;;;;;7.35;6.32;;;-1.50;1.40;;;-1.36;95.71;95186.51;645676;212;32172;-71
2021/01/26 07:08:59;;;;;;;6.28;5.60;;;-1.50;1.40;;;-1.35;95.28;95178.98;645655;216;31569;-70
2021/01/26 07:11:55;;;;;;;8.00;5.80;;;-1.50;1.40;;;-1.43;97.17;95182.39;644843;212;34037;-71
2021/01/26 07:14:29;;;;;;;5.95;5.35;;;-1.60;1.40;;;-1.39;96.33;95200.48;635964;220;31777;-70
2021/01/26 07:16:59;;;;;;;6.13;5.53;;;-1.50;1.40;;;-1.41;96.14;95188.48;634493;221;32344;-71
2021/01/26 07:19:51;;;;;;;6.53;5.30;;;-1.50;1.40;;;-1.43;96.70;95187.38;634596;220;32064;-71
2021/01/26 07:22:46;;;;;;;5.73;4.63;;;-1.60;1.40;;;-1.48;97.22;95185.81;641455;220;23478;-70
2021/01/26 07:25:33;;;;;;;5.78;4.50;;;-1.60;1.40;;;-1.40;95.86;95196.11;646150;216;32096;-70
2021/01/26 07:28:22;;;;;;;4.93;4.53;;;-1.50;1.40;;;-1.32;94.54;95188.39;642367;220;23603;-70
2021/01/26 07:30:56;;;;;;;4.33;3.93;;;-1.50;1.40;;;-1.27;92.41;95196.12;642426;220;25062;-70
2021/01/26 07:33:46;;;;;;;5.23;4.10;;;-1.40;1.40;;;-1.29;92.77;95196.30;636770;220;31771;-71
2021/01/26 07:36:28;;;;;;;5.03;4.22;;;-1.40;1.40;;;-1.25;91.47;95196.01;645881;212;31595;-68
2021/01/26 07:39:05;;;;;;;4.43;3.87;;;-1.30;1.40;;;-1.32;93.02;95205.36;646028;220;23503;-67
2021/01/26 07:41:37;;;;;;;4.28;3.87;;;-1.40;1.40;;;-1.30;93.13;95215.22;662278;211;32301;-68
2021/01/26 07:44:15;;;;;;;4.53;3.95;;;-1.40;1.40;;;-1.30;93.77;95224.47;655431;210;31570;-68
2021/01/26 07:46:50;;;;;;;5.97;5.00;;;-1.40;1.40;;;-1.39;95.74;95229.95;630723;225;23513;-68
2021/01/26 07:49:23;;;;;;;3.50;2.93;;;-1.50;1.40;;;-1.52;98.80;95233.31;656966;215;24495;-68
2021/01/26 07:51:53;;;;;;;5.10;4.40;;;-1.70;1.40;;;-1.58;100.00;95238.56;649069;215;31564;-69
2021/01/26 07:54:28;;;;;;;5.50;3.60;;;-1.80;1.40;;;-1.72;100.00;95240.14;629482;225;23521;-68
2021/01/26 07:56:58;;;;;;;5.93;4.60;;;-1.90;1.40;;;-1.81;100.00;95244.56;627282;225;25652;-68
2021/01/26 07:59:28;;;;;;;6.05;5.28;;;-2.00;1.40;;;-1.86;100.00;95248.88;626165;225;32051;-68
2021/01/26 08:01:59;;;;;;;7.45;6.03;;;-2.10;1.40;;;-1.92;100.00;95237.66;622110;225;32123;-68
2021/01/26 08:04:28;;;;;;;7.60;6.30;;;-2.10;1.40;;;-1.94;100.00;95239.11;624645;225;31848;-69
2021/01/26 08:06:58;;;;;;;6.45;5.85;;;-2.10;1.40;;;-1.93;100.00;95253.27;623458;225;31984;-69
2021/01/26 08:09:37;;;;;;;6.70;6.00;;;-2.10;1.40;;;-1.93;100.00;95248.48;658971;215;23583;-68
2021/01/26 08:12:08;;;;;;;8.00;4.97;;;-2.10;1.40;;;-1.94;100.00;95245.16;630811;224;24707;-69
2021/01/26 08:14:41;;;;;;;9.38;6.30;;;-2.10;1.40;;;-1.92;100.00;95252.86;634374;221;31790;-68
2021/01/26 08:17:11;;;;;;;6.50;5.77;;;-2.10;1.40;;;-1.95;100.00;95247.22;634640;225;24677;-69
2021/01/26 08:19:41;;;;;;;7.43;6.30;;;-2.10;1.40;;;-1.84;100.00;95241.75;649220;215;31574;-68
2021/01/26 08:22:30;;;;;;;7.30;5.80;;;-2.00;1.40;;;-1.82;100.00;95240.94;641940;220;23486;-68
2021/01/26 08:28:04;;;;;;;6.60;5.65;;;-2.00;1.40;;;-1.80;100.00;95244.32;645166;212;31636;-69
2021/01/26 08:30:56;;;;;;;5.53;4.70;;;-2.00;1.40;;;-1.76;100.00;95247.03;643413;220;23501;-68
2021/01/26 08:33:35;;;;;;;8.43;5.90;;;-1.90;1.40;;;-1.71;100.00;95229.17;649837;213;31680;-68
2021/01/26 08:36:12;;;;;;;6.10;5.07;;;-1.80;1.40;;;-1.66;100.00;95235.47;640134;221;23495;-68
2021/01/26 08:38:45;;;;;;;4.97;4.47;;;-1.80;1.40;;;-1.61;100.00;95229.41;649196;219;24486;-68
2021/01/26 08:41:17;;;;;;;7.10;5.77;;;-1.80;1.40;;;-1.49;100.00;95228.25;666828;211;39337;-69
2021/01/26 08:43:46;;;;;;;6.87;5.80;;;-1.70;1.40;;;-1.52;100.00;95225.94;656035;211;31556;-69
2021/01/26 08:46:32;;;;;;;6.77;6.07;;;-1.70;1.40;;;-1.45;100.00;95236.09;657681;215;23470;-69
2021/01/26 08:49:01;;;;;;;4.90;4.50;;;-1.70;1.40;;;-1.41;100.00;95237.13;656679;215;24463;-69
2021/01/26 08:54:05;;;;;;;6.20;5.60;;;-1.60;1.40;;;-1.35;100.00;95242.25;648939;216;32341;-70
2021/01/26 08:56:34;;;;;;;6.07;5.47;;;-1.60;1.40;;;-1.35;100.00;95240.12;639371;221;23646;-68
2021/01/26 08:59:03;;;;;;;6.73;5.07;;;-1.50;1.40;;;-1.35;100.00;95240.86;639076;221;26640;-69
2021/01/26 09:01:36;;;;;;;8.15;5.65;;;-1.50;1.40;;;-1.25;100.00;95253.42;633780;221;31913;-68
2021/01/26 09:04:43;;;;;;;5.57;5.07;;;-1.40;1.40;;;-1.29;100.00;95250.28;656484;217;23651;-69
2021/01/26 09:07:13;;;;;;;5.70;5.10;;;-1.40;1.40;;;-1.17;100.00;95227.33;646673;216;31940;-68
2021/01/26 09:09:45;;;;;;;5.47;4.80;;;-1.30;1.40;;;-1.16;100.00;95260.89;662423;211;42049;-68
2021/01/26 09:12:14;;;;;;;5.03;4.53;;;-1.30;1.40;;;-1.12;100.00;95258.95;667832;211;24469;-68
2021/01/26 09:14:48;;;;;;;5.27;4.77;;;-1.20;1.40;;;-1.08;100.00;95265.65;653567;216;24483;-68
2021/01/26 09:19:56;;;;;;;6.30;5.37;;;-1.20;1.40;;;-1.04;100.00;95269.35;646939;216;31616;-70
2021/01/26 09:22:26;;;;;;;5.23;4.73;;;-1.20;1.40;;;-1.02;100.00;95250.55;639999;220;28786;-70
2021/01/26 09:25:05;;;;;;;5.50;4.40;;;-1.20;1.40;;;-1.01;100.00;95269.31;640876;220;24547;-70
2021/01/26 09:27:34;;;;;;;6.20;5.07;;;-1.20;1.40;;;-1.01;100.00;95256.55;635191;220;32152;-69
2021/01/26 09:30:12;;;;;;;9.00;4.40;;;-1.20;1.40;;;-0.95;100.00;95278.19;641633;220;23480;-70
2021/01/26 09:32:41;;;;;;;7.70;4.93;;;-1.10;1.40;;;-0.98;100.00;95265.95;634849;220;31749;-70
2021/01/26 09:37:44;;;;;;;5.62;4.35;;;-1.00;1.40;;;-0.80;100.00;95262.44;645753;216;31717;-70
2021/01/26 09:40:14;;;;;;;4.20;3.80;;;-0.90;1.40;;;-0.73;100.00;95268.87;644125;220;24574;-70
2021/01/26 09:45:21;;;;;;;5.68;4.85;;;-0.80;1.40;;;-0.70;100.00;95267.92;647786;216;31600;-70
2021/01/26 09:47:50;;;;;;;6.72;5.30;;;-0.90;1.40;;;-0.63;100.00;95278.86;633803;220;31858;-70
2021/01/26 09:50:19;;;;;;;5.20;4.80;;;-0.80;1.40;;;-0.64;100.00;95281.60;640018;220;23636;-70
2021/01/26 09:52:48;;;;;;;7.20;4.50;;;-0.80;1.40;;;-0.65;99.59;95282.44;642425;221;24548;-70
2021/01/26 09:55:17;;;;;;;6.30;4.63;;;-0.80;1.40;;;-0.63;99.43;95284.23;639915;221;24583;-70
2021/01/26 09:57:46;;;;;;;5.45;4.55;;;-0.80;1.40;;;-0.63;99.42;95290.67;636160;221;31805;-70
2021/01/26 10:00:17;;;;;;;5.93;4.77;;;-0.80;1.40;;;-0.57;99.20;95299.72;642125;221;23487;-70
2021/01/26 10:02:46;;;;;;;6.00;3.70;;;-0.80;1.40;;;-0.65;98.88;95299.73;654679;216;24497;-70
2021/01/26 10:05:15;;;;;;;5.90;5.00;;;-0.80;1.40;;;-0.66;99.30;95300.56;664699;211;31526;-70
2021/01/26 10:07:44;;;;;;;5.90;4.53;;;-0.80;1.40;;;-0.56;99.46;95316.40;668146;211;23428;-70
2021/01/26 10:10:22;;;;;;;6.18;4.50;;;-0.70;1.40;;;-0.57;99.34;95300.20;648397;216;31723;-69
2021/01/26 10:12:51;;;;;;;4.67;4.07;;;-0.70;1.40;;;-0.47;98.84;95300.94;657322;215;23479;-70
2021/01/26 10:15:35;;;;;;;6.30;5.37;;;-0.60;1.40;;;-0.33;98.31;95302.06;668348;211;24757;-70
2021/01/26 10:18:08;;;;;;;4.80;4.10;;;-0.50;1.40;;;-0.42;97.57;95300.02;670513;211;24454;-69
2021/01/26 10:20:37;;;;;;;6.00;4.53;;;-0.50;1.40;;;-0.36;97.04;95280.77;642225;220;29865;-70
2021/01/26 10:23:06;;;;;;;3.20;2.87;;;-0.50;1.40;;;-0.49;97.19;95288.23;669126;211;24448;-70
2021/01/26 10:28:10;;;;;;;5.12;4.22;;;-0.50;1.40;;;-0.40;96.54;95321.45;650522;212;31557;-70
2021/01/26 10:30:42;;;;;;;5.23;4.03;;;-0.50;1.40;;;-0.37;96.74;95323.63;641119;221;25699;-70
2021/01/26 10:33:11;;;;;;;5.50;3.97;;;-0.50;1.40;;;-0.40;96.92;95354.74;635789;221;31733;-70
2021/01/26 10:35:42;;;;;;;4.73;3.53;;;-0.60;1.40;;;-0.27;96.86;95313.78;636368;221;23524;-70
2021/01/26 10:38:34;;;;;;;3.50;3.20;;;-0.40;1.40;;;-0.25;96.33;95315.46;640163;221;24518;-70
2021/01/26 10:41:11;;;;;;;7.83;4.60;;;-0.40;1.40;;;-0.25;96.65;95310.72;642363;221;25597;-70
2021/01/26 10:43:40;;;;;;;3.23;2.93;;;-0.40;1.40;;;-0.23;96.05;95316.78;635712;220;25447;-70
2021/01/26 10:46:12;;;;;;;5.35;4.35;;;-0.40;1.40;;;-0.10;96.25;95322.20;622285;225;31911;-70
2021/01/26 10:48:43;;;;;;;4.40;3.27;;;-0.20;1.40;;;-0.13;94.79;95344.78;626348;224;23969;-69
2021/01/26 10:51:14;;;;;;;6.80;4.80;;;-0.30;1.40;;;0.07;94.91;95320.22;639727;221;24562;-70
2021/01/26 10:53:45;;;;;;;4.10;3.80;;;-0.10;1.40;;;0.17;94.01;95326.88;629365;225;24644;-69
2021/01/26 10:56:14;;;;;;;5.00;4.03;;;0.00;1.40;;;0.02;94.72;95330.09;650843;215;31582;-71
2021/01/26 10:58:44;;;;;;;4.97;3.83;;;-0.10;1.40;;;0.00;95.53;95329.97;630095;225;24630;-69
2021/01/26 11:01:13;;;;;;;6.33;4.10;;;-0.10;1.40;;;-0.08;96.25;95344.61;652437;215;32174;-70
2021/01/26 11:03:42;;;;;;;3.73;3.43;;;-0.20;1.40;;;-0.22;96.14;95328.84;657676;215;24507;-69
2021/01/26 11:06:11;;;;;;;4.80;3.50;;;-0.40;1.40;;;-0.06;96.34;95330.38;647393;216;31617;-69
2021/01/26 11:08:43;;;;;;;4.33;4.00;;;-0.30;1.40;;;-0.16;96.45;95332.76;656023;216;29809;-69
2021/01/26 11:11:13;;;;;;;4.10;3.50;;;-0.40;1.40;;;-0.25;96.86;95350.62;653314;216;24681;-69
2021/01/26 11:13:42;;;;;;;4.50;3.90;;;-0.50;1.40;;;-0.26;98.04;95343.67;653457;216;24533;-69
2021/01/26 11:16:11;;;;;;;4.40;4.00;;;-0.50;1.40;;;-0.14;96.87;95330.81;653734;216;26613;-69
2021/01/26 11:18:41;;;;;;;7.07;3.60;;;-0.40;1.40;;;-0.10;96.94;95340.20;657254;215;24475;-69
2021/01/26 11:21:09;;;;;;;5.32;4.00;;;-0.30;1.40;;;-0.08;97.00;95329.63;646910;215;31719;-69
2021/01/26 11:23:39;;;;;;;5.50;3.90;;;-0.30;1.40;;;-0.07;95.51;95345.05;629157;225;23496;-69
2021/01/26 11:26:08;;;;;;;3.60;3.30;;;-0.20;1.40;;;0.11;95.14;95317.45;658747;216;24572;-69
2021/01/26 11:28:37;;;;;;;8.50;3.30;;;0.00;1.40;;;0.45;92.78;95336.53;655126;216;24471;-69